sensor_id;sensor_type;location;lat;lon;timestamp;pressure;altitude;pressure_sealevel;temperature;humidity
73700;BME280;62005;50.082;8.988;2024-03-23T00:55:55;99678.44;;;9.36;100.00
73700;BME280;62005;50.082;8.988;2024-03-23T00:58:21;99661.09;;;9.32;100.00
73700;BME280;62005;50.082;8.988;2024-03-23T01:00:47;99651.22;;;9.26;100.00
73700;BME280;62005;50.082;8.988;2024-03-23T01:03:12;99647.47;;;9.27;100.00
73700;BME280;62005;50.082;8.988;2024-03-23T01:05:38;99643.72;;;9.28;100.00
73700;BME280;62005;50.082;8.988;2024-03-23T01:08:03;99641.16;;;9.33;100.00
73700;BME280;62005;50.082;8.988;2024-03-23T01:10:29;99654.75;;;9.38;100.00
73700;BME280;62005;50.082;8.988;2024-03-23T01:12:54;99663.44;;;9.40;100.00
73700;BME280;62005;50.082;8.988;2024-03-23T01:15:20;99633.19;;;9.38;100.00
73700;BME280;62005;50.082;8.988;2024-03-23T01:17:45;99629.41;;;9.39;100.00
73700;BME280;62005;50.082;8.988;2024-03-23T01:20:11;99639.16;;;9.40;100.00
73700;BME280;62005;50.082;8.988;2024-03-23T01:22:37;99622.38;;;9.38;100.00
73700;BME280;62005;50.082;8.988;2024-03-23T01:25:03;99640.09;;;9.46;100.00
73700;BME280;62005;50.082;8.988;2024-03-23T01:27:28;99638.22;;;9.46;100.00
73700;BME280;62005;50.082;8.988;2024-03-23T01:29:54;99631.75;;;9.47;100.00
73700;BME280;62005;50.082;8.988;2024-03-23T01:32:19;99612.19;;;9.40;100.00
73700;BME280;62005;50.082;8.988;2024-03-23T01:34:45;99609.16;;;9.48;100.00
73700;BME280;62005;50.082;8.988;2024-03-23T01:37:10;99632.72;;;9.53;100.00
73700;BME280;62005;50.082;8.988;2024-03-23T01:39:36;99622.16;;;9.51;100.00
73700;BME280;62005;50.082;8.988;2024-03-23T01:42:01;99611.00;;;9.48;100.00
73700;BME280;62005;50.082;8.988;2024-03-23T01:44:27;99607.59;;;9.52;100.00
73700;BME280;62005;50.082;8.988;2024-03-23T01:46:53;99609.28;;;9.53;100.00
73700;BME280;62005;50.082;8.988;2024-03-23T01:49:18;99597.75;;;9.46;100.00
73700;BME280;62005;50.082;8.988;2024-03-23T01:51:44;99588.28;;;9.44;100.00
73700;BME280;62005;50.082;8.988;2024-03-23T01:54:10;99589.78;;;9.51;100.00
73700;BME280;62005;50.082;8.988;2024-03-23T01:56:36;99579.34;;;9.43;100.00
73700;BME280;62005;50.082;8.988;2024-03-23T01:59:05;99596.69;;;9.47;100.00
73700;BME280;62005;50.082;8.988;2024-03-23T02:01:31;99577.13;;;9.40;100.00
73700;BME280;62005;50.082;8.988;2024-03-23T02:03:57;99577.13;;;9.40;100.00
73700;BME280;62005;50.082;8.988;2024-03-23T02:06:24;99584.88;;;9.48;100.00
73700;BME280;62005;50.082;8.988;2024-03-23T02:08:49;99570.78;;;9.46;100.00
73700;BME280;62005;50.082;8.988;2024-03-23T02:11:15;99556.00;;;9.49;100.00
73700;BME280;62005;50.082;8.988;2024-03-23T02:13:40;99544.75;;;9.40;100.00
73700;BME280;62005;50.082;8.988;2024-03-23T02:16:06;99556.72;;;9.44;100.00
73700;BME280;62005;50.082;8.988;2024-03-23T02:18:34;99553.41;;;9.42;100.00
73700;BME280;62005;50.082;8.988;2024-03-23T02:21:00;99555.78;;;9.50;100.00
73700;BME280;62005;50.082;8.988;2024-03-23T02:23:26;99545.00;;;9.50;100.00
73700;BME280;62005;50.082;8.988;2024-03-23T02:25:51;99544.28;;;9.55;100.00
73700;BME280;62005;50.082;8.988;2024-03-23T02:28:18;99551.53;;;9.54;100.00
73700;BME280;62005;50.082;8.988;2024-03-23T02:30:44;99545.66;;;9.57;100.00
73700;BME280;62005;50.082;8.988;2024-03-23T02:33:10;99537.47;;;9.52;100.00
73700;BME280;62005;50.082;8.988;2024-03-23T02:35:35;99513.53;;;9.44;100.00
73700;BME280;62005;50.082;8.988;2024-03-23T02:38:00;99525.63;;;9.53;100.00
73700;BME280;62005;50.082;8.988;2024-03-23T02:40:27;99513.19;;;9.52;100.00
73700;BME280;62005;50.082;8.988;2024-03-23T02:42:53;99515.31;;;9.50;100.00
73700;BME280;62005;50.082;8.988;2024-03-23T02:45:18;99516.59;;;9.59;100.00
73700;BME280;62005;50.082;8.988;2024-03-23T02:47:44;99511.66;;;9.56;100.00
73700;BME280;62005;50.082;8.988;2024-03-23T02:50:09;99521.16;;;9.59;100.00
73700;BME280;62005;50.082;8.988;2024-03-23T02:52:36;99498.06;;;9.51;100.00
73700;BME280;62005;50.082;8.988;2024-03-23T02:55:02;99491.72;;;9.57;100.00
73700;BME280;62005;50.082;8.988;2024-03-23T02:57:28;99503.34;;;9.58;100.00
73700;BME280;62005;50.082;8.988;2024-03-23T02:59:54;99496.44;;;9.50;100.00
73700;BME280;62005;50.082;8.988;2024-03-23T03:02:20;99495.97;;;9.53;100.00
73700;BME280;62005;50.082;8.988;2024-03-23T03:04:46;99491.72;;;9.57;100.00
73700;BME280;62005;50.082;8.988;2024-03-23T03:07:11;99470.50;;;9.49;100.00
73700;BME280;62005;50.082;8.988;2024-03-23T03:09:37;99482.59;;;9.58;100.00
73700;BME280;62005;50.082;8.988;2024-03-23T03:12:05;99473.91;;;9.56;100.00
73700;BME280;62005;50.082;8.988;2024-03-23T03:14:30;99474.00;;;9.61;100.00
73700;BME280;62005;50.082;8.988;2024-03-23T03:16:56;99461.94;;;9.52;100.00
73700;BME280;62005;50.082;8.988;2024-03-23T03:19:21;99465.22;;;9.54;100.00
73700;BME280;62005;50.082;8.988;2024-03-23T03:21:47;99472.13;;;9.62;100.00
73700;BME280;62005;50.082;8.988;2024-03-23T03:24:15;99461.47;;;9.55;100.00
73700;BME280;62005;50.082;8.988;2024-03-23T03:26:42;99470.47;;;9.61;100.00
73700;BME280;62005;50.082;8.988;2024-03-23T03:29:07;99455.59;;;9.58;100.00
73700;BME280;62005;50.082;8.988;2024-03-23T03:31:33;99469.19;;;9.63;100.00
73700;BME280;62005;50.082;8.988;2024-03-23T03:33:58;99464.94;;;9.67;100.00
73700;BME280;62005;50.082;8.988;2024-03-23T03:36:24;99470.34;;;9.67;100.00
73700;BME280;62005;50.082;8.988;2024-03-23T03:38:49;99444.31;;;9.61;100.00
73700;BME280;62005;50.082;8.988;2024-03-23T03:41:15;99435.16;;;9.62;100.00
73700;BME280;62005;50.082;8.988;2024-03-23T03:43:41;99428.25;;;9.66;100.00
73700;BME280;62005;50.082;8.988;2024-03-23T03:46:06;99435.03;;;9.69;100.00
73700;BME280;62005;50.082;8.988;2024-03-23T03:48:33;99448.28;;;9.70;100.00
73700;BME280;62005;50.082;8.988;2024-03-23T03:50:59;99447.47;;;9.70;100.00
73700;BME280;62005;50.082;8.988;2024-03-23T03:53:24;99447.00;;;9.73;100.00
73700;BME280;62005;50.082;8.988;2024-03-23T03:55:50;99462.34;;;9.72;100.00
73700;BME280;62005;50.082;8.988;2024-03-23T03:58:15;99461.22;;;9.68;100.00
73700;BME280;62005;50.082;8.988;2024-03-23T04:00:41;99453.56;;;9.65;100.00
73700;BME280;62005;50.082;8.988;2024-03-23T04:03:06;99462.34;;;9.72;100.00
73700;BME280;62005;50.082;8.988;2024-03-23T04:05:32;99446.66;;;9.69;100.00
73700;BME280;62005;50.082;8.988;2024-03-23T04:07:58;99455.31;;;9.71;100.00
73700;BME280;62005;50.082;8.988;2024-03-23T04:10:24;99433.06;;;9.64;100.00
73700;BME280;62005;50.082;8.988;2024-03-23T04:12:50;99454.25;;;9.72;100.00
73700;BME280;62005;50.082;8.988;2024-03-23T04:15:16;99449.94;;;9.71;100.00
73700;BME280;62005;50.082;8.988;2024-03-23T04:17:41;99450.97;;;9.70;100.00
73700;BME280;62005;50.082;8.988;2024-03-23T04:20:08;99445.47;;;9.65;100.00
73700;BME280;62005;50.082;8.988;2024-03-23T04:22:34;99435.16;;;9.62;100.00
73700;BME280;62005;50.082;8.988;2024-03-23T04:25:00;99450.41;;;9.68;100.00
73700;BME280;62005;50.082;8.988;2024-03-23T04:27:34;99447.13;;;9.66;100.00
73700;BME280;62005;50.082;8.988;2024-03-23T04:29:59;99448.16;;;9.65;100.00
73700;BME280;62005;50.082;8.988;2024-03-23T04:32:27;99445.94;;;9.62;100.00
73700;BME280;62005;50.082;8.988;2024-03-23T04:34:53;99449.81;;;9.66;100.00
73700;BME280;62005;50.082;8.988;2024-03-23T04:37:18;99448.09;;;9.60;100.00
73700;BME280;62005;50.082;8.988;2024-03-23T04:39:45;99447.84;;;9.62;100.00
73700;BME280;62005;50.082;8.988;2024-03-23T04:42:10;99476.91;;;9.71;100.00
73700;BME280;62005;50.082;8.988;2024-03-23T04:44:36;99464.94;;;9.67;100.00
73700;BME280;62005;50.082;8.988;2024-03-23T04:47:01;99448.16;;;9.65;100.00
73700;BME280;62005;50.082;8.988;2024-03-23T04:49:27;99450.41;;;9.68;100.00
73700;BME280;62005;50.082;8.988;2024-03-23T04:51:52;99461.88;;;9.75;100.00
73700;BME280;62005;50.082;8.988;2024-03-23T04:54:18;99460.72;;;9.71;100.00
73700;BME280;62005;50.082;8.988;2024-03-23T04:56:43;99456.25;;;9.65;100.00
73700;BME280;62005;50.082;8.988;2024-03-23T04:59:09;99467.41;;;9.69;100.00
73700;BME280;62005;50.082;8.988;2024-03-23T05:01:34;99460.50;;;9.61;100.00
73700;BME280;62005;50.082;8.988;2024-03-23T05:04:00;99473.53;;;9.64;100.00
73700;BME280;62005;50.082;8.988;2024-03-23T05:06:26;99482.09;;;9.61;100.00
73700;BME280;62005;50.082;8.988;2024-03-23T05:08:52;99482.00;;;9.56;100.00
73700;BME280;62005;50.082;8.988;2024-03-23T05:11:18;99504.03;;;9.65;100.00
73700;BME280;62005;50.082;8.988;2024-03-23T05:13:44;99486.31;;;9.57;100.00
73700;BME280;62005;50.082;8.988;2024-03-23T05:16:09;99496.66;;;9.60;100.00
73700;BME280;62005;50.082;8.988;2024-03-23T05:18:35;99490.56;;;9.53;100.00
73700;BME280;62005;50.082;8.988;2024-03-23T05:21:01;99508.59;;;9.64;100.00
73700;BME280;62005;50.082;8.988;2024-03-23T05:23:28;99526.22;;;9.55;100.00
73700;BME280;62005;50.082;8.988;2024-03-23T05:25:54;99547.34;;;9.58;100.00
73700;BME280;62005;50.082;8.988;2024-03-23T05:28:22;99571.63;;;9.58;100.00
73700;BME280;62005;50.082;8.988;2024-03-23T05:30:54;99576.06;;;9.53;100.00
73700;BME280;62005;50.082;8.988;2024-03-23T05:33:20;99557.06;;;9.36;100.00
73700;BME280;62005;50.082;8.988;2024-03-23T05:35:46;99543.34;;;9.38;100.00
73700;BME280;62005;50.082;8.988;2024-03-23T05:38:11;99560.94;;;9.40;100.00
73700;BME280;62005;50.082;8.988;2024-03-23T05:40:37;99575.81;;;9.31;100.00
73700;BME280;62005;50.082;8.988;2024-03-23T05:43:08;99599.00;;;9.20;100.00
73700;BME280;62005;50.082;8.988;2024-03-23T05:45:34;99610.38;;;9.11;100.00
73700;BME280;62005;50.082;8.988;2024-03-23T05:48:00;99633.13;;;9.15;100.00
73700;BME280;62005;50.082;8.988;2024-03-23T05:50:25;99631.47;;;9.14;99.43
73700;BME280;62005;50.082;8.988;2024-03-23T05:52:51;99639.38;;;9.15;99.44
73700;BME280;62005;50.082;8.988;2024-03-23T05:55:16;99648.13;;;9.11;99.62
73700;BME280;62005;50.082;8.988;2024-03-23T05:57:42;99652.34;;;9.07;99.27
73700;BME280;62005;50.082;8.988;2024-03-23T06:00:07;99653.50;;;9.11;99.33
73700;BME280;62005;50.082;8.988;2024-03-23T06:02:49;99654.91;;;9.02;98.88
73700;BME280;62005;50.082;8.988;2024-03-23T06:05:14;99677.66;;;9.06;99.18
73700;BME280;62005;50.082;8.988;2024-03-23T06:07:40;99686.47;;;9.13;99.93
73700;BME280;62005;50.082;8.988;2024-03-23T06:10:06;99670.88;;;9.15;99.89
73700;BME280;62005;50.082;8.988;2024-03-23T06:12:32;99681.31;;;9.11;98.68
73700;BME280;62005;50.082;8.988;2024-03-23T06:14:57;99680.47;;;9.11;99.94
73700;BME280;62005;50.082;8.988;2024-03-23T06:17:23;99670.63;;;9.05;98.41
73700;BME280;62005;50.082;8.988;2024-03-23T06:19:49;99683.63;;;9.08;98.39
73700;BME280;62005;50.082;8.988;2024-03-23T06:22:14;99684.22;;;9.10;99.18
73700;BME280;62005;50.082;8.988;2024-03-23T06:24:40;99682.66;;;9.02;98.60
73700;BME280;62005;50.082;8.988;2024-03-23T06:27:05;99681.88;;;9.02;98.82
73700;BME280;62005;50.082;8.988;2024-03-23T06:29:31;99687.84;;;9.04;98.91
73700;BME280;62005;50.082;8.988;2024-03-23T06:31:57;99691.72;;;9.08;98.64
73700;BME280;62005;50.082;8.988;2024-03-23T06:34:23;99689.34;;;9.00;97.90
73700;BME280;62005;50.082;8.988;2024-03-23T06:36:49;99682.47;;;9.04;98.65
73700;BME280;62005;50.082;8.988;2024-03-23T06:39:15;99706.25;;;9.07;98.75
73700;BME280;62005;50.082;8.988;2024-03-23T06:41:51;99703.44;;;9.02;98.54
73700;BME280;62005;50.082;8.988;2024-03-23T06:44:18;99720.22;;;9.04;98.34
73700;BME280;62005;50.082;8.988;2024-03-23T06:46:43;99735.31;;;9.05;98.90
73700;BME280;62005;50.082;8.988;2024-03-23T06:49:09;99745.19;;;9.11;99.62
73700;BME280;62005;50.082;8.988;2024-03-23T06:51:35;99757.16;;;9.15;99.33
73700;BME280;62005;50.082;8.988;2024-03-23T06:54:02;99770.03;;;9.13;98.00
73700;BME280;62005;50.082;8.988;2024-03-23T06:56:27;99786.22;;;9.13;97.14
73700;BME280;62005;50.082;8.988;2024-03-23T06:58:52;99794.16;;;9.08;96.50
73700;BME280;62005;50.082;8.988;2024-03-23T07:01:18;99807.50;;;9.03;96.59
73700;BME280;62005;50.082;8.988;2024-03-23T07:03:44;99798.38;;;9.04;96.79
73700;BME280;62005;50.082;8.988;2024-03-23T07:06:10;99781.47;;;8.97;96.64
73700;BME280;62005;50.082;8.988;2024-03-23T07:08:35;99791.19;;;8.98;96.03
73700;BME280;62005;50.082;8.988;2024-03-23T07:11:02;99792.63;;;9.00;94.72
73700;BME280;62005;50.082;8.988;2024-03-23T07:13:28;99793.66;;;8.99;93.57
73700;BME280;62005;50.082;8.988;2024-03-23T07:15:53;99798.97;;;8.88;92.29
73700;BME280;62005;50.082;8.988;2024-03-23T07:18:23;99807.38;;;8.80;92.74
73700;BME280;62005;50.082;8.988;2024-03-23T07:20:56;99828.84;;;8.86;92.69
73700;BME280;62005;50.082;8.988;2024-03-23T07:23:22;99834.25;;;8.86;91.36
73700;BME280;62005;50.082;8.988;2024-03-23T07:26:04;99845.03;;;8.86;92.05
73700;BME280;62005;50.082;8.988;2024-03-23T07:28:32;99851.25;;;8.87;91.70
73700;BME280;62005;50.082;8.988;2024-03-23T07:31:11;99865.31;;;8.89;90.89
73700;BME280;62005;50.082;8.988;2024-03-23T07:33:42;99878.66;;;8.84;90.56
73700;BME280;62005;50.082;8.988;2024-03-23T07:36:07;99867.88;;;8.84;90.73
73700;BME280;62005;50.082;8.988;2024-03-23T07:38:33;99865.88;;;8.73;91.43
73700;BME280;62005;50.082;8.988;2024-03-23T07:41:14;99868.00;;;8.71;90.74
73700;BME280;62005;50.082;8.988;2024-03-23T07:43:39;99873.81;;;8.68;90.43
73700;BME280;62005;50.082;8.988;2024-03-23T07:46:06;99899.13;;;8.67;90.42
73700;BME280;62005;50.082;8.988;2024-03-23T07:48:32;99916.50;;;8.71;89.49
73700;BME280;62005;50.082;8.988;2024-03-23T07:51:01;99909.00;;;8.73;89.61
73700;BME280;62005;50.082;8.988;2024-03-23T07:53:31;99904.50;;;8.67;89.39
73700;BME280;62005;50.082;8.988;2024-03-23T07:55:58;99913.97;;;8.76;90.47
73700;BME280;62005;50.082;8.988;2024-03-23T07:58:25;99901.53;;;8.75;89.72
73700;BME280;62005;50.082;8.988;2024-03-23T08:00:51;99911.41;;;8.81;88.86
73700;BME280;62005;50.082;8.988;2024-03-23T08:03:17;99918.47;;;8.82;88.37
73700;BME280;62005;50.082;8.988;2024-03-23T08:05:42;99918.00;;;8.85;88.01
73700;BME280;62005;50.082;8.988;2024-03-23T08:08:08;99913.06;;;8.82;87.80
73700;BME280;62005;50.082;8.988;2024-03-23T08:10:33;99922.19;;;8.81;85.91
73700;BME280;62005;50.082;8.988;2024-03-23T08:12:59;99947.06;;;8.83;85.64
73700;BME280;62005;50.082;8.988;2024-03-23T08:15:25;99946.59;;;8.86;84.93
73700;BME280;62005;50.082;8.988;2024-03-23T08:17:51;99951.56;;;8.89;85.66
73700;BME280;62005;50.082;8.988;2024-03-23T08:20:16;99941.44;;;8.84;84.72
73700;BME280;62005;50.082;8.988;2024-03-23T08:22:42;99944.00;;;8.97;86.53
73700;BME280;62005;50.082;8.988;2024-03-23T08:25:07;99948.91;;;9.07;85.83
73700;BME280;62005;50.082;8.988;2024-03-23T08:27:33;99946.75;;;9.15;85.63
73700;BME280;62005;50.082;8.988;2024-03-23T08:29:58;99968.97;;;9.29;84.56
73700;BME280;62005;50.082;8.988;2024-03-23T08:32:24;99973.78;;;9.27;82.68
73700;BME280;62005;50.082;8.988;2024-03-23T08:34:49;99969.28;;;9.21;82.72
73700;BME280;62005;50.082;8.988;2024-03-23T08:37:15;99987.69;;;9.24;81.91
73700;BME280;62005;50.082;8.988;2024-03-23T08:39:43;99981.88;;;9.27;81.91
73700;BME280;62005;50.082;8.988;2024-03-23T08:42:08;99998.34;;;9.37;83.33
73700;BME280;62005;50.082;8.988;2024-03-23T08:44:34;99996.63;;;9.43;82.66
73700;BME280;62005;50.082;8.988;2024-03-23T08:47:01;99993.63;;;9.51;82.18
73700;BME280;62005;50.082;8.988;2024-03-23T08:49:26;100003.78;;;9.55;82.09
73700;BME280;62005;50.082;8.988;2024-03-23T08:51:52;100005.13;;;9.64;81.63
73700;BME280;62005;50.082;8.988;2024-03-23T08:54:17;100009.88;;;9.80;81.67
73700;BME280;62005;50.082;8.988;2024-03-23T08:56:45;100003.75;;;9.91;81.30
73700;BME280;62005;50.082;8.988;2024-03-23T08:59:10;100005.38;;;10.10;82.78
73700;BME280;62005;50.082;8.988;2024-03-23T09:01:36;100013.53;;;10.22;80.40
73700;BME280;62005;50.082;8.988;2024-03-23T09:04:01;99997.69;;;10.25;80.53
73700;BME280;62005;50.082;8.988;2024-03-23T09:06:27;100007.38;;;10.44;81.06
73700;BME280;62005;50.082;8.988;2024-03-23T09:08:52;100011.06;;;10.62;81.04
73700;BME280;62005;50.082;8.988;2024-03-23T09:11:18;99987.94;;;10.66;78.89
73700;BME280;62005;50.082;8.988;2024-03-23T09:13:43;100004.41;;;10.76;77.23
73700;BME280;62005;50.082;8.988;2024-03-23T09:16:08;99997.22;;;10.70;77.07
73700;BME280;62005;50.082;8.988;2024-03-23T09:18:35;100007.25;;;10.81;77.10
73700;BME280;62005;50.082;8.988;2024-03-23T09:21:02;99997.00;;;10.83;77.07
73700;BME280;62005;50.082;8.988;2024-03-23T09:23:28;100006.31;;;10.87;74.85
73700;BME280;62005;50.082;8.988;2024-03-23T09:25:54;100021.25;;;11.01;74.55
73700;BME280;62005;50.082;8.988;2024-03-23T09:28:19;99990.31;;;10.74;73.90
73700;BME280;62005;50.082;8.988;2024-03-23T09:30:45;100017.84;;;10.94;76.11
73700;BME280;62005;50.082;8.988;2024-03-23T09:33:16;100017.38;;;10.97;76.38
73700;BME280;62005;50.082;8.988;2024-03-23T09:35:43;100019.00;;;10.98;74.34
73700;BME280;62005;50.082;8.988;2024-03-23T09:41:08;100017.97;;;10.87;71.57
73700;BME280;62005;50.082;8.988;2024-03-23T09:43:34;100037.84;;;11.04;71.26
73700;BME280;62005;50.082;8.988;2024-03-23T09:46:00;100022.66;;;11.03;71.80
73700;BME280;62005;50.082;8.988;2024-03-23T09:48:27;99993.84;;;10.86;71.27
73700;BME280;62005;50.082;8.988;2024-03-23T09:50:52;100019.00;;;10.98;70.96
73700;BME280;62005;50.082;8.988;2024-03-23T09:53:19;100020.22;;;11.02;71.57
73700;BME280;62005;50.082;8.988;2024-03-23T09:55:44;100027.97;;;11.10;71.30
73700;BME280;62005;50.082;8.988;2024-03-23T09:58:17;100036.44;;;11.25;73.16
73700;BME280;62005;50.082;8.988;2024-03-23T10:00:43;100031.63;;;11.38;69.97
73700;BME280;62005;50.082;8.988;2024-03-23T10:03:09;100014.44;;;11.44;66.16
73700;BME280;62005;50.082;8.988;2024-03-23T10:05:36;100043.03;;;11.75;65.27
73700;BME280;62005;50.082;8.988;2024-03-23T10:08:18;100042.56;;;11.78;63.93
73700;BME280;62005;50.082;8.988;2024-03-23T10:10:45;100035.25;;;11.67;65.26
73700;BME280;62005;50.082;8.988;2024-03-23T10:13:23;100034.56;;;11.60;64.69
73700;BME280;62005;50.082;8.988;2024-03-23T10:15:57;100041.88;;;11.71;64.41
73700;BME280;62005;50.082;8.988;2024-03-23T10:18:23;100021.03;;;11.60;64.21
73700;BME280;62005;50.082;8.988;2024-03-23T10:21:08;100020.19;;;11.71;66.37
73700;BME280;62005;50.082;8.988;2024-03-23T10:23:37;99991.13;;;11.55;62.29
73700;BME280;62005;50.082;8.988;2024-03-23T10:26:19;100000.66;;;11.69;63.94
73700;BME280;62005;50.082;8.988;2024-03-23T10:28:57;100027.59;;;11.75;63.04
73700;BME280;62005;50.082;8.988;2024-03-23T10:31:49;100025.63;;;11.71;63.86
73700;BME280;62005;50.082;8.988;2024-03-23T10:34:15;99984.91;;;11.43;62.84
73700;BME280;62005;50.082;8.988;2024-03-23T10:36:41;99992.53;;;11.46;63.27
73700;BME280;62005;50.082;8.988;2024-03-23T10:39:07;99991.94;;;11.44;61.97
73700;BME280;62005;50.082;8.988;2024-03-23T10:41:33;99990.31;;;11.43;62.75
73700;BME280;62005;50.082;8.988;2024-03-23T10:44:01;99980.56;;;11.30;61.64
73700;BME280;62005;50.082;8.988;2024-03-23T10:46:27;99996.44;;;11.50;64.03
73700;BME280;62005;50.082;8.988;2024-03-23T10:48:53;99991.13;;;11.55;65.26
73700;BME280;62005;50.082;8.988;2024-03-23T10:51:19;99984.66;;;11.56;66.95
73700;BME280;62005;50.082;8.988;2024-03-23T10:53:45;99986.53;;;11.67;67.38
73700;BME280;62005;50.082;8.988;2024-03-23T10:56:14;99993.81;;;11.78;66.39
73700;BME280;62005;50.082;8.988;2024-03-23T10:58:44;99953.13;;;11.50;60.87
73700;BME280;62005;50.082;8.988;2024-03-23T11:01:11;99970.88;;;11.69;60.15
73700;BME280;62005;50.082;8.988;2024-03-23T11:03:38;99970.28;;;11.67;60.04
73700;BME280;62005;50.082;8.988;2024-03-23T11:06:05;99960.38;;;11.61;57.13
73700;BME280;62005;50.082;8.988;2024-03-23T11:08:36;99978.50;;;11.72;60.56
73700;BME280;62005;50.082;8.988;2024-03-23T11:11:21;99979.41;;;11.89;59.41
73700;BME280;62005;50.082;8.988;2024-03-23T11:13:49;100006.56;;;12.06;60.20
73700;BME280;62005;50.082;8.988;2024-03-23T11:16:27;100002.19;;;12.16;57.44
73700;BME280;62005;50.082;8.988;2024-03-23T11:19:33;99992.97;;;12.17;56.88
73700;BME280;62005;50.082;8.988;2024-03-23T11:22:01;99981.78;;;12.14;59.00
73700;BME280;62005;50.082;8.988;2024-03-23T11:24:27;99965.63;;;11.91;56.98
73700;BME280;62005;50.082;8.988;2024-03-23T11:26:53;99999.91;;;11.85;60.59
73700;BME280;62005;50.082;8.988;2024-03-23T11:29:21;100011.97;;;11.43;65.06
73700;BME280;62005;50.082;8.988;2024-03-23T11:31:47;100088.69;;;11.37;67.55
73700;BME280;62005;50.082;8.988;2024-03-23T11:34:15;100063.06;;;10.75;73.81
73700;BME280;62005;50.082;8.988;2024-03-23T11:36:42;100038.72;;;10.34;75.53
73700;BME280;62005;50.082;8.988;2024-03-23T11:39:18;100081.69;;;10.53;78.19
73700;BME280;62005;50.082;8.988;2024-03-23T11:41:51;100053.22;;;10.39;78.35
73700;BME280;62005;50.082;8.988;2024-03-23T11:44:19;100063.09;;;10.45;77.03
73700;BME280;62005;50.082;8.988;2024-03-23T11:46:46;100059.03;;;10.36;78.33
73700;BME280;62005;50.082;8.988;2024-03-23T11:49:27;100054.84;;;10.40;78.09
73700;BME280;62005;50.082;8.988;2024-03-23T11:51:54;100062.34;;;10.38;78.95
73700;BME280;62005;50.082;8.988;2024-03-23T11:54:24;100050.31;;;10.23;75.16
73700;BME280;62005;50.082;8.988;2024-03-23T11:57:01;100058.47;;;10.16;73.48
73700;BME280;62005;50.082;8.988;2024-03-23T11:59:35;100039.13;;;10.01;72.63
73700;BME280;62005;50.082;8.988;2024-03-23T12:02:12;100048.00;;;10.08;74.53
73700;BME280;62005;50.082;8.988;2024-03-23T12:04:41;100049.09;;;10.01;74.66
73700;BME280;62005;50.082;8.988;2024-03-23T12:07:15;100046.34;;;9.89;73.64
73700;BME280;62005;50.082;8.988;2024-03-23T12:09:41;100039.72;;;9.85;73.38
73700;BME280;62005;50.082;8.988;2024-03-23T12:12:16;100020.69;;;9.80;74.08
73700;BME280;62005;50.082;8.988;2024-03-23T12:15:01;100016.66;;;9.71;72.87
73700;BME280;62005;50.082;8.988;2024-03-23T12:17:27;100010.81;;;9.74;74.48
73700;BME280;62005;50.082;8.988;2024-03-23T12:19:52;99991.59;;;9.82;75.41
73700;BME280;62005;50.082;8.988;2024-03-23T12:22:22;99984.38;;;9.94;74.76
73700;BME280;62005;50.082;8.988;2024-03-23T12:24:48;99984.53;;;10.17;76.95
73700;BME280;62005;50.082;8.988;2024-03-23T12:27:14;99983.03;;;10.33;75.30
73700;BME280;62005;50.082;8.988;2024-03-23T12:29:40;99949.81;;;10.32;74.84
73700;BME280;62005;50.082;8.988;2024-03-23T12:32:08;99963.38;;;10.56;72.87
73700;BME280;62005;50.082;8.988;2024-03-23T12:34:33;99930.09;;;10.55;72.03
73700;BME280;62005;50.082;8.988;2024-03-23T12:36:59;99919.66;;;10.70;69.11
73700;BME280;62005;50.082;8.988;2024-03-23T12:39:24;99937.28;;;10.96;72.37
73700;BME280;62005;50.082;8.988;2024-03-23T12:41:50;99927.41;;;11.01;69.47
73700;BME280;62005;50.082;8.988;2024-03-23T12:44:17;99940.00;;;11.19;67.53
73700;BME280;62005;50.082;8.988;2024-03-23T12:46:43;99947.38;;;11.35;68.41
73700;BME280;62005;50.082;8.988;2024-03-23T12:49:09;99946.19;;;11.42;67.87
73700;BME280;62005;50.082;8.988;2024-03-23T12:51:35;99938.88;;;11.54;63.73
73700;BME280;62005;50.082;8.988;2024-03-23T12:54:00;99932.13;;;11.57;61.19
73700;BME280;62005;50.082;8.988;2024-03-23T12:56:26;99927.66;;;11.62;60.11
73700;BME280;62005;50.082;8.988;2024-03-23T12:58:54;99894.72;;;11.54;60.72
73700;BME280;62005;50.082;8.988;2024-03-23T13:01:20;99931.16;;;11.86;59.86
73700;BME280;62005;50.082;8.988;2024-03-23T13:03:47;99919.00;;;11.89;60.67
73700;BME280;62005;50.082;8.988;2024-03-23T13:06:13;99913.78;;;11.99;61.03
73700;BME280;62005;50.082;8.988;2024-03-23T13:08:38;99895.56;;;11.94;57.89
73700;BME280;62005;50.082;8.988;2024-03-23T13:11:05;99922.34;;;12.07;57.22
73700;BME280;62005;50.082;8.988;2024-03-23T13:13:31;99914.13;;;12.02;60.29
73700;BME280;62005;50.082;8.988;2024-03-23T13:15:58;99868.84;;;11.86;60.98
73700;BME280;62005;50.082;8.988;2024-03-23T13:18:24;99908.38;;;12.15;61.63
73700;BME280;62005;50.082;8.988;2024-03-23T13:20:49;99901.34;;;12.14;57.16
73700;BME280;62005;50.082;8.988;2024-03-23T13:23:15;99891.94;;;12.05;59.43
73700;BME280;62005;50.082;8.988;2024-03-23T13:25:41;99871.56;;;11.86;57.09
73700;BME280;62005;50.082;8.988;2024-03-23T13:28:53;99918.56;;;12.08;56.13
73700;BME280;62005;50.082;8.988;2024-03-23T13:41:07;100012.22;;;11.07;70.49
73700;BME280;62005;50.082;8.988;2024-03-23T13:43:34;100041.47;;;10.45;76.97
73700;BME280;62005;50.082;8.988;2024-03-23T13:45:59;100066.28;;;10.24;78.51
73700;BME280;62005;50.082;8.988;2024-03-23T13:48:27;100071.88;;;10.11;80.08
73700;BME280;62005;50.082;8.988;2024-03-23T13:51:00;100074.81;;;10.03;81.95
73700;BME280;62005;50.082;8.988;2024-03-23T13:53:26;100069.28;;;9.80;83.72
73700;BME280;62005;50.082;8.988;2024-03-23T13:55:51;100074.50;;;9.57;84.84
73700;BME280;62005;50.082;8.988;2024-03-23T13:58:17;100081.97;;;9.37;86.46
73700;BME280;62005;50.082;8.988;2024-03-23T14:00:43;100082.09;;;9.24;87.86
73700;BME280;62005;50.082;8.988;2024-03-23T14:03:12;100081.88;;;9.25;88.78
73700;BME280;62005;50.082;8.988;2024-03-23T14:05:38;100068.59;;;9.24;90.78
73700;BME280;62005;50.082;8.988;2024-03-23T14:08:05;100068.94;;;9.34;91.21